Allentown, New Jersey
Current Conditions -  °F | °C
As of 1:13 PM on Thursday 23 Oct 2014 (Local Time) from KWRI Reporting Station
Light Rain Light Rain  
Wind Chill: 52°   Ceiling: 1400
Heat Index: 52°   Visibility: 10mi
Dew Point: 48°   Wind: 16mph
Humidity: 88%   Direction: 310°NW
Pressure: 29.72"   Gusts: 23mph
Location:  40.18°N, 74.58°W
Report Text: KWRI 231713Z AUTO 31014G20KT 10SM -RA BKN014 OVC019 11/09 A2972 RMK AO2
Loading
Personal Weather Stations






























Interactive Weather Map New forecast layout! Learn more

10-Day Weather Forecast

Advertisements
Track Severe Weather on mobile